createdAt,value
2022-08-03T00:02:54.181Z,74.10
2022-08-03T00:06:37.310Z,74.10
2022-08-03T00:10:19.530Z,74.20
2022-08-03T00:14:01.418Z,74.20
2022-08-03T00:17:52.665Z,74.20
2022-08-03T00:21:35.577Z,74.20
2022-08-03T00:25:17.804Z,74.30
2022-08-03T00:28:59.707Z,74.40
2022-08-03T00:32:45.103Z,74.60
2022-08-03T00:36:27.754Z,74.80
2022-08-03T00:40:12.369Z,75.00
2022-08-03T00:43:54.149Z,75.90
2022-08-03T00:47:35.942Z,75.30
2022-08-03T00:51:18.743Z,75.50
2022-08-03T00:55:01.589Z,75.80
2022-08-03T00:58:46.551Z,75.80
2022-08-03T01:02:31.419Z,76.90
2022-08-03T01:06:18.102Z,77.00
2022-08-03T01:10:11.893Z,77.40
2022-08-03T01:14:01.685Z,76.20
2022-08-03T01:18:22.764Z,76.50
2022-08-03T01:22:31.022Z,78.30
2022-08-03T01:26:14.735Z,78.40
2022-08-03T01:30:04.695Z,77.40
2022-08-03T01:33:50.008Z,78.30
2022-08-03T01:37:58.943Z,77.60
2022-08-03T01:41:44.653Z,78.90
2022-08-03T01:45:26.478Z,78.00
2022-08-03T01:49:10.747Z,77.40
2022-08-03T01:52:52.521Z,77.70
2022-08-03T01:56:34.341Z,77.80
2022-08-03T02:00:16.559Z,77.80
2022-08-03T02:04:01.494Z,77.90
2022-08-03T02:07:43.304Z,78.10
2022-08-03T02:11:25.131Z,78.10
2022-08-03T02:15:07.465Z,78.40
2022-08-03T02:18:50.457Z,78.50
2022-08-03T02:22:33.566Z,78.50
2022-08-03T02:26:17.055Z,79.10
2022-08-03T02:30:00.418Z,79.00
2022-08-03T02:33:44.786Z,78.30
2022-08-03T02:37:29.027Z,79.10
2022-08-03T02:41:17.014Z,79.10
2022-08-03T02:45:00.245Z,80.20
2022-08-03T02:48:43.267Z,79.10
2022-08-03T02:52:28.213Z,79.50
2022-08-03T02:56:09.970Z,80.00
2022-08-03T02:59:52.176Z,79.40
2022-08-03T03:03:40.012Z,79.90
2022-08-03T03:07:26.901Z,80.10
2022-08-03T03:11:11.194Z,80.30
2022-08-03T03:14:53.025Z,80.40
2022-08-03T03:18:35.034Z,80.40
2022-08-03T03:22:17.067Z,80.50
2022-08-03T03:25:59.067Z,80.80
2022-08-03T03:29:41.055Z,81.00
2022-08-03T03:33:23.060Z,81.10
2022-08-03T03:37:05.268Z,81.30
2022-08-03T03:40:47.234Z,81.30
2022-08-03T03:44:30.391Z,81.60
2022-08-03T03:48:12.201Z,81.80
2022-08-03T03:51:56.993Z,82.50
2022-08-03T03:56:02.163Z,83.20
2022-08-03T03:59:44.006Z,82.00
2022-08-03T04:03:25.871Z,83.60
2022-08-03T04:07:25.977Z,82.50
2022-08-03T04:11:32.021Z,82.50
2022-08-03T04:15:14.018Z,85.10
2022-08-03T04:19:52.006Z,83.00
2022-08-03T04:23:34.990Z,85.20
2022-08-03T04:27:18.258Z,83.20
2022-08-03T04:31:20.566Z,83.40
2022-08-03T04:35:02.390Z,85.00
2022-08-03T04:39:05.074Z,83.20
2022-08-03T04:42:46.907Z,85.00
2022-08-03T04:46:37.431Z,83.30
2022-08-03T04:51:16.007Z,85.20
2022-08-03T04:54:57.911Z,85.20
2022-08-03T04:58:58.825Z,83.30
2022-08-03T05:02:40.670Z,85.30
2022-08-03T05:06:25.088Z,83.30
2022-08-03T05:10:44.743Z,83.40
2022-08-03T05:14:28.100Z,85.10
2022-08-03T05:19:06.693Z,83.30
2022-08-03T05:22:48.946Z,85.00
2022-08-03T05:26:30.801Z,83.30
2022-08-03T05:30:35.590Z,83.50
2022-08-03T05:34:17.437Z,85.10
2022-08-03T05:37:59.242Z,83.70
2022-08-03T05:41:41.082Z,83.90
2022-08-03T05:45:27.924Z,84.70
2022-08-03T05:50:06.405Z,84.70
2022-08-03T05:53:48.258Z,87.40
2022-08-03T05:57:30.061Z,84.70
2022-08-03T06:01:12.121Z,84.90
2022-08-03T06:05:05.272Z,85.30
2022-08-03T06:08:48.805Z,85.60
2022-08-03T06:12:31.160Z,85.60
2022-08-03T06:16:12.986Z,85.70
2022-08-03T06:20:51.408Z,85.80
2022-08-03T06:24:34.159Z,87.60
2022-08-03T06:28:51.739Z,85.70
2022-08-03T06:32:22.809Z,86.40
2022-08-03T06:36:04.970Z,86.00
2022-08-03T06:40:07.086Z,86.40
2022-08-03T06:44:03.411Z,87.90
2022-08-03T06:47:46.131Z,86.10
2022-08-03T06:52:05.155Z,86.30
2022-08-03T06:55:53.927Z,88.70
2022-08-03T07:00:10.872Z,86.10
2022-08-03T07:03:38.045Z,86.30
2022-08-03T07:07:34.153Z,86.30
2022-08-03T07:11:17.048Z,86.10
2022-08-03T07:15:02.353Z,86.40
2022-08-03T07:18:45.981Z,86.20
2022-08-03T07:22:28.422Z,86.50
2022-08-03T07:26:10.274Z,86.20
2022-08-03T07:29:52.122Z,86.20
2022-08-03T07:33:34.040Z,86.20
2022-08-03T07:37:15.934Z,86.10
2022-08-03T07:41:16.725Z,86.20
2022-08-03T07:44:58.768Z,87.60
2022-08-03T07:48:40.760Z,86.20
2022-08-03T07:52:40.925Z,86.40
2022-08-03T07:56:23.178Z,86.30
2022-08-03T08:00:12.600Z,85.90
2022-08-03T08:03:54.567Z,86.40
2022-08-03T08:07:36.582Z,85.80
2022-08-03T08:11:18.429Z,85.70
2022-08-03T08:15:00.258Z,85.70
2022-08-03T08:19:02.070Z,86.00
2022-08-03T08:22:44.102Z,85.50
2022-08-03T08:26:26.403Z,85.60
2022-08-03T08:30:12.330Z,84.60
2022-08-03T08:34:04.373Z,84.30
2022-08-03T08:37:51.075Z,83.90
2022-08-03T08:41:36.339Z,83.30
2022-08-03T08:45:19.388Z,83.10
2022-08-03T08:49:04.778Z,82.90
2022-08-03T08:52:50.454Z,82.50
2022-08-03T08:56:32.279Z,82.30
2022-08-03T09:00:14.953Z,82.00
2022-08-03T09:03:56.824Z,81.90
2022-08-03T09:07:38.874Z,82.00
2022-08-03T09:11:57.589Z,81.80
2022-08-03T09:15:28.372Z,81.30
2022-08-03T09:20:03.520Z,81.10
2022-08-03T09:24:02.299Z,80.80
2022-08-03T09:27:46.234Z,80.40
2022-08-03T09:31:47.949Z,80.00
2022-08-03T09:35:53.490Z,80.00
2022-08-03T09:40:09.421Z,79.80
2022-08-03T09:43:56.872Z,79.70
2022-08-03T09:47:44.857Z,79.40
2022-08-03T09:51:33.198Z,78.80
2022-08-03T09:56:35.604Z,78.60
2022-08-03T09:59:31.755Z,78.40
2022-08-03T10:03:13.535Z,78.20
2022-08-03T10:07:09.456Z,78.00
2022-08-03T10:11:29.225Z,77.50
2022-08-03T10:16:22.447Z,78.20
2022-08-03T10:20:12.030Z,77.80
2022-08-03T10:23:53.956Z,77.90
2022-08-03T10:27:38.815Z,77.80
2022-08-03T10:32:17.107Z,78.20
2022-08-03T10:35:59.006Z,76.40
2022-08-03T10:40:04.921Z,76.40
2022-08-03T10:43:53.330Z,75.90
2022-08-03T10:47:35.262Z,76.20
2022-08-03T10:52:32.759Z,76.40
2022-08-03T10:56:52.030Z,76.30
2022-08-03T11:01:11.275Z,75.30
2022-08-03T11:05:26.355Z,74.60
2022-08-03T11:09:29.283Z,74.90
2022-08-03T11:13:11.383Z,76.10
2022-08-03T11:17:14.102Z,75.40
2022-08-03T11:21:38.331Z,74.00
2022-08-03T11:25:54.428Z,74.50
2022-08-03T11:29:29.862Z,75.20
2022-08-03T11:33:11.960Z,74.70
2022-08-03T11:37:22.507Z,75.30
2022-08-03T11:41:42.948Z,75.20
2022-08-03T11:45:27.357Z,75.00
2022-08-03T11:49:31.000Z,74.90
2022-08-03T11:53:13.998Z,74.90
2022-08-03T11:56:55.886Z,75.50
2022-08-03T12:01:07.732Z,75.50
2022-08-03T12:04:53.511Z,75.80
2022-08-03T12:08:35.390Z,75.60
2022-08-03T12:12:17.255Z,75.40
2022-08-03T12:16:01.609Z,75.40
2022-08-03T12:19:44.858Z,75.20
2022-08-03T12:23:26.590Z,75.40
2022-08-03T12:27:08.430Z,75.70
2022-08-03T12:31:11.195Z,75.60
2022-08-03T12:34:53.039Z,76.30
2022-08-03T12:39:33.557Z,76.10
2022-08-03T12:43:15.619Z,75.90
2022-08-03T12:47:03.427Z,75.20
2022-08-03T12:50:53.607Z,74.60
2022-08-03T12:54:36.114Z,73.10
2022-08-03T12:58:34.014Z,73.20
2022-08-03T13:02:17.711Z,72.20
2022-08-03T13:05:59.674Z,72.90
2022-08-03T13:09:48.079Z,72.70
2022-08-03T13:13:39.679Z,72.10
2022-08-03T13:17:21.830Z,71.60
2022-08-03T13:21:05.862Z,71.90
2022-08-03T13:24:48.730Z,71.10
2022-08-03T13:28:31.642Z,71.30
2022-08-03T13:32:13.525Z,71.20
2022-08-03T13:35:55.466Z,71.00
2022-08-03T13:39:58.238Z,70.50
2022-08-03T13:43:40.226Z,70.20
2022-08-03T13:47:22.275Z,69.80
2022-08-03T13:51:22.076Z,69.50
2022-08-03T13:55:05.745Z,69.30
2022-08-03T13:58:47.689Z,69.40
2022-08-03T14:02:29.547Z,69.30
2022-08-03T14:06:11.390Z,69.40
2022-08-03T14:09:53.356Z,68.90
2022-08-03T14:13:35.121Z,68.10
2022-08-03T14:17:17.025Z,67.70
2022-08-03T14:21:03.362Z,66.90
2022-08-03T14:24:47.473Z,66.10
2022-08-03T14:28:29.392Z,65.30
2022-08-03T14:32:13.456Z,63.90
2022-08-03T14:35:55.504Z,63.00
2022-08-03T14:43:40.299Z,62.20
2022-08-03T14:49:02.621Z,61.90
2022-08-03T14:51:53.602Z,61.10
2022-08-03T14:55:38.969Z,61.20
2022-08-03T14:59:55.538Z,60.50
2022-08-03T15:03:34.645Z,60.50
2022-08-03T15:07:16.398Z,59.40
2022-08-03T15:10:59.240Z,59.10
2022-08-03T15:14:40.939Z,58.60
2022-08-03T15:18:22.942Z,60.50
2022-08-03T15:22:04.805Z,58.90
2022-08-03T15:26:29.165Z,58.00
2022-08-03T15:30:05.629Z,58.00
2022-08-03T15:33:50.619Z,57.10
2022-08-03T15:37:32.395Z,57.10
2022-08-03T15:41:14.624Z,57.20
2022-08-03T15:44:56.384Z,57.30
2022-08-03T15:48:40.075Z,57.10
2022-08-03T15:52:21.917Z,56.60
2022-08-03T15:56:09.678Z,56.90
2022-08-03T15:59:52.722Z,56.50
2022-08-03T16:03:34.650Z,56.40
2022-08-03T16:07:36.366Z,56.10
2022-08-03T16:11:18.443Z,56.10
2022-08-03T16:15:01.474Z,55.10
2022-08-03T16:18:44.426Z,53.00
2022-08-03T16:22:26.218Z,50.10
2022-08-03T16:26:09.225Z,50.30
2022-08-03T16:29:51.420Z,49.80
2022-08-03T16:33:33.507Z,49.40
2022-08-03T16:37:37.710Z,48.40
2022-08-03T16:41:17.362Z,48.10
2022-08-03T16:44:59.094Z,46.70
2022-08-03T16:48:40.954Z,45.40
2022-08-03T16:52:23.003Z,44.00
2022-08-03T16:56:09.909Z,46.30
2022-08-03T16:59:52.484Z,43.40
2022-08-03T17:03:57.100Z,41.90
2022-08-03T17:07:38.355Z,42.00
2022-08-03T17:11:20.424Z,41.20
2022-08-03T17:15:02.198Z,40.70
2022-08-03T17:19:01.972Z,39.80
2022-08-03T17:22:50.199Z,37.80
2022-08-03T17:26:34.408Z,36.10
2022-08-03T17:30:18.921Z,37.90
2022-08-03T17:34:01.863Z,37.50
2022-08-03T17:37:57.522Z,36.70
2022-08-03T17:41:50.629Z,36.90
2022-08-03T17:45:51.902Z,36.60
2022-08-03T17:49:40.006Z,36.50
2022-08-03T17:53:31.392Z,38.10
2022-08-03T17:58:02.497Z,35.40
2022-08-03T18:02:11.573Z,37.30
2022-08-03T18:06:11.276Z,39.40
2022-08-03T18:10:06.243Z,40.50
2022-08-03T18:13:57.975Z,41.30
2022-08-03T18:18:02.959Z,42.80
2022-08-03T18:22:03.633Z,43.60
2022-08-03T18:25:53.697Z,43.80
2022-08-03T18:29:39.602Z,45.10
2022-08-03T18:34:19.272Z,45.10
2022-08-03T18:37:25.179Z,45.80
2022-08-03T18:41:15.142Z,46.10
2022-08-03T18:44:59.544Z,46.70
2022-08-03T18:49:21.085Z,47.10
2022-08-03T18:53:15.632Z,48.70
2022-08-03T18:56:59.658Z,48.20
2022-08-03T19:00:54.696Z,48.50
2022-08-03T19:04:46.449Z,49.00
2022-08-03T19:09:21.405Z,50.40
2022-08-03T19:13:18.910Z,50.90
2022-08-03T19:17:14.258Z,51.70
2022-08-03T19:21:03.666Z,50.80
2022-08-03T19:24:57.853Z,51.40
2022-08-03T19:28:40.857Z,51.80
2022-08-03T19:32:24.440Z,52.60
2022-08-03T19:36:10.587Z,53.40
2022-08-03T19:39:56.651Z,53.10
2022-08-03T19:43:53.040Z,53.40
2022-08-03T19:47:37.487Z,54.80
2022-08-03T19:51:58.406Z,54.40
2022-08-03T19:55:21.617Z,53.60
2022-08-03T19:59:03.595Z,54.20
2022-08-03T20:02:55.061Z,54.80
2022-08-03T20:06:36.826Z,55.10
2022-08-03T20:10:18.979Z,55.30
2022-08-03T20:14:00.833Z,55.60
2022-08-03T20:17:59.331Z,55.70
2022-08-03T20:21:43.803Z,57.50
2022-08-03T20:25:37.704Z,56.90
2022-08-03T20:30:05.048Z,58.40
2022-08-03T20:33:48.645Z,58.30
2022-08-03T20:37:31.099Z,57.10
2022-08-03T20:41:13.417Z,57.40
2022-08-03T20:45:05.631Z,57.60
2022-08-03T20:48:49.073Z,57.80
2022-08-03T20:52:32.123Z,58.00
2022-08-03T20:56:14.574Z,58.40
2022-08-03T20:59:56.586Z,58.30
2022-08-03T21:03:41.076Z,58.50
2022-08-03T21:08:06.026Z,58.70
2022-08-03T21:11:48.642Z,59.20
2022-08-03T21:16:11.630Z,58.50
2022-08-03T21:19:34.356Z,59.00
2022-08-03T21:23:40.295Z,59.30
2022-08-03T21:27:20.814Z,60.00
2022-08-03T21:31:02.865Z,59.90
2022-08-03T21:34:45.666Z,60.20
2022-08-03T21:38:29.893Z,60.60
2022-08-03T21:42:12.897Z,60.90
2022-08-03T21:46:05.379Z,61.20
2022-08-03T21:50:05.660Z,63.10
2022-08-03T21:54:02.458Z,61.50
2022-08-03T21:57:51.478Z,62.30
2022-08-03T22:01:35.352Z,62.80
2022-08-03T22:05:18.258Z,62.30
2022-08-03T22:09:11.347Z,62.70
2022-08-03T22:12:53.143Z,62.90
2022-08-03T22:16:34.937Z,63.10
2022-08-03T22:20:17.039Z,63.40
2022-08-03T22:23:59.198Z,63.80
2022-08-03T22:27:42.161Z,63.90
2022-08-03T22:31:30.524Z,64.30
2022-08-03T22:35:26.458Z,64.50
2022-08-03T22:39:08.350Z,64.50
2022-08-03T22:42:51.322Z,64.80
2022-08-03T22:46:34.346Z,65.10
2022-08-03T22:50:31.647Z,65.30
2022-08-03T22:54:15.436Z,65.60
2022-08-03T22:57:57.238Z,65.70
2022-08-03T23:01:39.351Z,65.80
2022-08-03T23:06:00.804Z,66.00
2022-08-03T23:09:33.430Z,67.90
2022-08-03T23:13:16.892Z,66.30
2022-08-03T23:16:59.891Z,66.90
2022-08-03T23:20:41.968Z,66.50
2022-08-03T23:24:30.004Z,66.10
2022-08-03T23:28:14.577Z,66.30
2022-08-03T23:31:56.517Z,67.40
2022-08-03T23:36:27.676Z,66.90
2022-08-03T23:39:59.112Z,67.10
2022-08-03T23:43:50.950Z,67.10
2022-08-03T23:47:46.374Z,67.30
2022-08-03T23:51:41.855Z,67.70
2022-08-03T23:55:57.852Z,69.80
2022-08-03T23:59:56.834Z,70.00
